Webb, Iowa
Current Conditions -  °F | °C
As of 2:53 PM on Saturday 22 Nov 2014 (Local Time) from KSPW Reporting Station
Haze Haze  
Wind Chill: 33°   Ceiling: 700
Heat Index: 41°   Visibility: 5mi
Dew Point: 38°   Wind: 15mph
Humidity: 89%   Direction: 180°S
Pressure: 29.64"   Gusts: NA
Location:  42.95°N, 95.01°W
Report Text: KSPW 222053Z AUTO 18013KT 5SM BR OVC007 05/03 A2964 RMK AO2 SLP047 T00500033 56028 TSNO
Loading
Personal Weather Stations






























Interactive Weather Map New forecast layout! Learn more

10-Day Weather Forecast

Advertisements
Track Severe Weather on mobile